Time;durP1;ratioP1;P1;durP2;ratioP2;P2;SDS_P1;SDS_P2;PMS_P1;PMS_P2;Temp;Humidity;BMP_temperature;BMP_pressure;BME280_temperature;BME280_humidity;BME280_pressure;Samples;Min_cycle;Max_cycle;Signal;HPM_P1;HPM_P2
2023/01/11 00:01:04;;;;;;;2.80;1.85;;;6.20;99.90;;;;;;4953280;29;20244;-75
2023/01/11 00:03:31;;;;;;;2.28;1.88;;;6.30;99.90;;;;;;4947168;29;20200;-74
2023/01/11 00:05:59;;;;;;;3.17;1.70;;;6.30;99.90;;;;;;4946714;29;20224;-73
2023/01/11 00:08:27;;;;;;;3.58;2.33;;;6.40;99.90;;;;;;4954811;29;20256;-74
2023/01/11 00:10:55;;;;;;;2.45;1.60;;;6.40;99.90;;;;;;4954084;29;20267;-74
2023/01/11 00:13:22;;;;;;;1.98;1.70;;;6.40;99.90;;;;;;4946811;29;20228;-74
2023/01/11 00:15:49;;;;;;;2.53;1.80;;;6.40;99.90;;;;;;4951670;29;20619;-75
2023/01/11 00:18:16;;;;;;;2.35;2.03;;;6.40;99.90;;;;;;4953881;28;20204;-74
2023/01/11 00:20:44;;;;;;;2.88;1.63;;;6.50;99.90;;;;;;4952280;29;20209;-73
2023/01/11 00:23:11;;;;;;;2.55;1.90;;;6.50;99.90;;;;;;4946956;29;20288;-74
2023/01/11 00:25:39;;;;;;;2.75;1.55;;;6.60;99.90;;;;;;4946369;29;20256;-74
2023/01/11 00:28:07;;;;;;;5.20;1.48;;;6.60;99.90;;;;;;4945433;29;20873;-74
2023/01/11 00:30:35;;;;;;;2.13;1.25;;;6.60;99.90;;;;;;4953223;29;20239;-74
2023/01/11 00:33:02;;;;;;;2.28;1.55;;;6.70;99.90;;;;;;4949226;28;20197;-74
2023/01/11 00:35:31;;;;;;;2.00;1.60;;;6.70;99.90;;;;;;4953451;29;20346;-73
2023/01/11 00:37:58;;;;;;;3.45;1.20;;;6.80;99.90;;;;;;4951048;29;20744;-74
2023/01/11 00:40:26;;;;;;;1.58;1.15;;;6.80;99.90;;;;;;4952717;29;20196;-74
2023/01/11 00:48:25;;;;;;;1.40;1.10;;;7.00;99.90;;;;;;4952534;29;20284;-74
2023/01/11 00:50:55;;;;;;;1.40;1.17;;;7.10;99.90;;;;;;4952472;29;20201;-74
2023/01/11 00:53:22;;;;;;;1.50;1.00;;;7.10;99.90;;;;;;4951330;29;20256;-74
2023/01/11 00:55:49;;;;;;;2.10;1.20;;;7.10;99.90;;;;;;4953710;29;20798;-75
2023/01/11 00:58:16;;;;;;;2.03;1.10;;;7.20;99.90;;;;;;4952135;29;20292;-74
2023/01/11 01:00:45;;;;;;;3.10;1.25;;;7.20;99.90;;;;;;4951961;28;20198;-75
2023/01/11 01:03:11;;;;;;;2.42;1.15;;;7.30;99.90;;;;;;4950917;28;20217;-74
2023/01/11 01:05:39;;;;;;;2.78;1.30;;;7.30;99.90;;;;;;4947980;28;20214;-75
2023/01/11 01:08:06;;;;;;;2.75;1.00;;;7.30;99.90;;;;;;4951732;29;20210;-75
2023/01/11 01:10:33;;;;;;;1.20;1.08;;;7.40;99.90;;;;;;4952344;29;20331;-75
2023/01/11 01:15:46;;;;;;;1.98;1.00;;;7.40;99.90;;;;;;4952156;29;20229;-75
2023/01/11 01:18:13;;;;;;;1.92;0.98;;;7.50;99.90;;;;;;4953120;29;20212;-74
2023/01/11 01:20:40;;;;;;;2.03;0.95;;;7.50;99.90;;;;;;4950374;29;20680;-74
2023/01/11 01:23:07;;;;;;;1.85;1.23;;;7.60;99.90;;;;;;4951408;29;20209;-75
2023/01/11 01:25:36;;;;;;;2.33;1.10;;;7.60;99.90;;;;;;4952394;29;20214;-75
2023/01/11 01:28:03;;;;;;;3.42;1.23;;;7.60;99.90;;;;;;4952029;28;20534;-75
2023/01/11 01:30:30;;;;;;;1.83;1.23;;;7.60;99.90;;;;;;4953386;29;20305;-75
2023/01/11 01:32:59;;;;;;;1.15;0.93;;;7.70;99.90;;;;;;4948996;29;20596;-74
2023/01/11 01:35:26;;;;;;;1.33;0.80;;;7.70;99.90;;;;;;4951371;29;20303;-75
2023/01/11 01:37:53;;;;;;;1.05;0.73;;;7.70;99.90;;;;;;4945966;29;20288;-75
2023/01/11 01:40:21;;;;;;;1.50;1.10;;;7.80;99.90;;;;;;4946477;29;20210;-75
2023/01/11 01:42:53;;;;;;;1.40;0.90;;;7.80;99.90;;;;;;4943408;29;20234;-75
2023/01/11 01:45:23;;;;;;;2.78;0.80;;;7.80;99.90;;;;;;4948018;29;20702;-75
2023/01/11 01:47:55;;;;;;;1.58;0.80;;;7.80;99.90;;;;;;4952885;29;20205;-74
2023/01/11 01:50:27;;;;;;;1.75;1.08;;;7.80;99.90;;;;;;4952338;29;20252;-74
2023/01/11 01:52:58;;;;;;;0.95;0.75;;;7.80;99.90;;;;;;4949658;29;20246;-73
2023/01/11 01:55:30;;;;;;;0.90;0.80;;;7.80;99.90;;;;;;4951293;29;20693;-74
2023/01/11 01:58:00;;;;;;;0.93;0.80;;;7.80;99.90;;;;;;4951566;28;20661;-73
2023/01/11 02:00:27;;;;;;;2.22;1.38;;;7.80;99.90;;;;;;4951521;29;20210;-73
2023/01/11 02:02:57;;;;;;;2.10;1.13;;;7.80;99.90;;;;;;4945666;28;20296;-73
2023/01/11 02:05:25;;;;;;;1.50;1.13;;;7.80;99.90;;;;;;4949321;29;20232;-73
2023/01/11 02:07:56;;;;;;;1.17;1.00;;;7.70;99.90;;;;;;4946837;29;20573;-73
2023/01/11 02:10:26;;;;;;;1.13;0.80;;;7.70;99.90;;;;;;4952244;29;20193;-73
2023/01/11 02:12:59;;;;;;;2.05;0.95;;;7.70;99.90;;;;;;4948381;29;20197;-73
2023/01/11 02:15:26;;;;;;;1.23;0.80;;;7.70;99.90;;;;;;4945481;28;20240;-73
2023/01/11 02:17:53;;;;;;;1.15;1.02;;;7.70;99.90;;;;;;4947703;28;20196;-73
2023/01/11 02:20:42;;;;;;;2.25;1.00;;;7.70;99.90;;;;;;4946007;29;20214;-73
2023/01/11 02:23:29;;;;;;;2.95;1.23;;;7.70;99.90;;;;;;4941064;29;20289;-74
2023/01/11 02:26:22;;;;;;;2.95;0.88;;;7.70;99.90;;;;;;4942270;29;20588;-73
2023/01/11 02:28:55;;;;;;;1.00;0.80;;;7.70;99.90;;;;;;4945051;29;20197;-73
2023/01/11 02:31:30;;;;;;;0.95;0.88;;;7.70;99.90;;;;;;4943988;29;20263;-73
2023/01/11 02:34:08;;;;;;;1.90;0.90;;;7.80;99.90;;;;;;4944916;29;20302;-74
2023/01/11 02:36:43;;;;;;;0.88;0.85;;;7.70;99.90;;;;;;4944219;29;20312;-73
2023/01/11 02:39:17;;;;;;;2.25;0.85;;;7.80;99.90;;;;;;4950864;29;20236;-73
2023/01/11 02:47:30;;;;;;;1.00;0.73;;;7.80;99.90;;;;;;4943143;29;20677;-73
2023/01/11 02:50:07;;;;;;;1.85;0.80;;;7.90;99.90;;;;;;4946517;29;20202;-74
2023/01/11 02:52:39;;;;;;;1.20;1.10;;;7.90;99.90;;;;;;4944613;29;20538;-74
2023/01/11 02:55:09;;;;;;;3.72;1.00;;;8.00;99.90;;;;;;4939096;29;20714;-73
2023/01/11 02:57:38;;;;;;;1.33;0.68;;;8.10;99.90;;;;;;4949321;29;20195;-73
2023/01/11 03:00:08;;;;;;;1.00;0.80;;;8.10;99.90;;;;;;4946555;29;20202;-73
2023/01/11 03:02:36;;;;;;;1.33;0.80;;;8.20;99.90;;;;;;4947861;29;20209;-73
2023/01/11 03:05:10;;;;;;;1.23;0.80;;;8.20;99.90;;;;;;4943072;29;20312;-73
2023/01/11 03:07:52;;;;;;;1.10;0.60;;;8.30;99.90;;;;;;4949605;29;20288;-73
2023/01/11 03:10:31;;;;;;;0.90;0.80;;;8.40;99.90;;;;;;4942874;29;20205;-73
2023/01/11 03:13:10;;;;;;;1.35;0.80;;;8.50;99.90;;;;;;4937407;29;20198;-73
2023/01/11 03:15:58;;;;;;;0.80;0.80;;;8.50;99.90;;;;;;4944785;29;20654;-72
2023/01/11 03:18:39;;;;;;;1.05;0.70;;;8.50;99.90;;;;;;4950707;29;20282;-72
2023/01/11 03:21:26;;;;;;;0.98;0.70;;;8.50;99.90;;;;;;4951351;29;20226;-73
2023/01/11 03:24:05;;;;;;;1.10;0.70;;;8.50;99.90;;;;;;4940275;29;20666;-73
2023/01/11 03:26:46;;;;;;;1.60;0.90;;;8.60;99.90;;;;;;4948557;29;20221;-73
2023/01/11 03:29:20;;;;;;;1.35;0.75;;;8.60;99.90;;;;;;4951343;29;20203;-73
2023/01/11 03:31:53;;;;;;;1.63;0.95;;;8.60;99.90;;;;;;4953081;29;20217;-73
2023/01/11 03:34:31;;;;;;;1.17;0.70;;;8.70;99.90;;;;;;4951006;29;20705;-72
2023/01/11 03:37:03;;;;;;;0.85;0.63;;;8.70;99.90;;;;;;4953440;29;20218;-74
2023/01/11 03:39:35;;;;;;;0.93;0.80;;;8.70;99.90;;;;;;4951888;29;20289;-72
2023/01/11 03:42:06;;;;;;;1.52;0.70;;;8.70;99.90;;;;;;4949358;29;20561;-73
2023/01/11 03:44:45;;;;;;;0.80;0.75;;;8.70;99.90;;;;;;4943540;29;20247;-73
2023/01/11 03:47:17;;;;;;;0.70;0.60;;;8.80;99.90;;;;;;4949784;29;20222;-73
2023/01/11 03:49:48;;;;;;;1.33;0.60;;;8.80;99.90;;;;;;4954213;28;20197;-74
2023/01/11 03:52:20;;;;;;;0.70;0.60;;;8.80;99.90;;;;;;4952168;29;20707;-73
2023/01/11 03:54:48;;;;;;;1.15;0.70;;;8.80;99.90;;;;;;4944324;29;20238;-74
2023/01/11 03:57:18;;;;;;;1.88;0.80;;;8.80;99.90;;;;;;4950452;29;20234;-72
2023/01/11 03:59:45;;;;;;;1.33;0.65;;;8.80;99.90;;;;;;4954576;29;20209;-73
2023/01/11 04:02:19;;;;;;;0.70;0.60;;;8.80;99.90;;;;;;4948616;29;20266;-73
2023/01/11 04:04:46;;;;;;;1.00;0.90;;;8.80;99.90;;;;;;4948835;29;20231;-72
2023/01/11 04:07:13;;;;;;;0.60;0.60;;;8.80;99.90;;;;;;4950677;29;20204;-73
2023/01/11 04:09:40;;;;;;;0.70;0.60;;;8.90;99.90;;;;;;4952507;29;20226;-73
2023/01/11 04:12:08;;;;;;;3.13;0.70;;;8.90;99.90;;;;;;4952826;29;20687;-73
2023/01/11 04:14:35;;;;;;;2.08;1.02;;;8.90;99.90;;;;;;4946697;29;20235;-73
2023/01/11 04:17:02;;;;;;;1.08;0.70;;;8.90;99.90;;;;;;4952742;29;20601;-73
2023/01/11 04:19:31;;;;;;;1.13;1.02;;;8.90;99.90;;;;;;4948576;29;20217;-73
2023/01/11 04:21:58;;;;;;;0.95;0.60;;;9.00;99.90;;;;;;4954913;29;20207;-73
2023/01/11 04:24:25;;;;;;;2.10;0.70;;;9.00;99.90;;;;;;4941060;29;20299;-74
2023/01/11 04:26:52;;;;;;;0.88;0.60;;;9.00;99.90;;;;;;4953486;29;20209;-73
2023/01/11 04:29:19;;;;;;;1.23;0.88;;;9.00;99.90;;;;;;4951643;29;20228;-73
2023/01/11 04:31:46;;;;;;;1.05;0.63;;;9.00;99.90;;;;;;4955252;29;20205;-73
2023/01/11 04:34:13;;;;;;;0.70;0.60;;;9.00;99.90;;;;;;4947727;29;20230;-74
2023/01/11 04:36:42;;;;;;;0.98;0.70;;;9.00;99.90;;;;;;4952120;29;20726;-73
2023/01/11 04:39:09;;;;;;;1.10;0.88;;;9.10;99.90;;;;;;4950937;28;20211;-73
2023/01/11 04:44:21;;;;;;;1.40;0.80;;;9.10;99.90;;;;;;4952256;29;20200;-74
2023/01/11 04:46:48;;;;;;;1.45;0.70;;;9.10;99.90;;;;;;4951717;29;20204;-73
2023/01/11 04:49:15;;;;;;;0.98;0.77;;;9.10;99.90;;;;;;4952521;29;20228;-74
2023/01/11 04:51:44;;;;;;;1.20;0.60;;;9.10;99.90;;;;;;4952156;28;20726;-73
2023/01/11 04:54:11;;;;;;;3.33;0.60;;;9.00;99.90;;;;;;4945595;29;20203;-74
2023/01/11 04:56:38;;;;;;;1.25;0.82;;;9.00;99.90;;;;;;4943612;29;20588;-74
2023/01/11 04:59:05;;;;;;;0.73;0.73;;;9.00;99.90;;;;;;4946988;29;20204;-74
2023/01/11 05:01:32;;;;;;;1.05;0.60;;;8.90;99.90;;;;;;4951836;29;20209;-75
2023/01/11 05:03:59;;;;;;;1.15;1.02;;;8.90;99.90;;;;;;4942723;29;20255;-74
2023/01/11 05:06:26;;;;;;;1.30;0.60;;;8.90;99.90;;;;;;4952437;29;20226;-74
2023/01/11 05:08:55;;;;;;;0.80;0.60;;;8.80;99.90;;;;;;4951885;29;20226;-74
2023/01/11 05:11:22;;;;;;;1.67;0.70;;;8.80;99.90;;;;;;4945278;29;20660;-73
2023/01/11 05:13:49;;;;;;;0.68;0.68;;;8.70;99.90;;;;;;4946718;29;20206;-74
2023/01/11 05:16:17;;;;;;;0.88;0.73;;;8.70;99.90;;;;;;4949327;29;20610;-73
2023/01/11 05:18:46;;;;;;;0.70;0.50;;;8.70;99.90;;;;;;4945178;29;20205;-74
2023/01/11 05:21:16;;;;;;;0.85;0.70;;;8.70;99.90;;;;;;4944591;28;20287;-74
2023/01/11 05:23:43;;;;;;;0.88;0.57;;;8.70;99.90;;;;;;4951982;28;20347;-74
2023/01/11 05:26:14;;;;;;;1.13;0.70;;;8.70;99.90;;;;;;4951155;29;20251;-72
2023/01/11 05:28:41;;;;;;;0.85;0.60;;;8.70;99.90;;;;;;4939722;29;20209;-73
2023/01/11 05:31:08;;;;;;;0.60;0.50;;;8.70;99.90;;;;;;4944578;28;20214;-74
2023/01/11 05:33:35;;;;;;;0.63;0.57;;;8.70;99.90;;;;;;4951715;28;20200;-74
2023/01/11 05:36:05;;;;;;;1.70;0.70;;;8.70;99.90;;;;;;4947599;28;20232;-75
2023/01/11 05:38:32;;;;;;;0.73;0.57;;;8.60;99.90;;;;;;4943488;29;20232;-74
2023/01/11 05:41:01;;;;;;;0.90;0.57;;;8.60;99.90;;;;;;4951302;29;20198;-75
2023/01/11 05:43:31;;;;;;;2.70;0.68;;;8.60;99.90;;;;;;4954142;29;20211;-75
2023/01/11 05:45:58;;;;;;;0.95;0.60;;;8.60;99.90;;;;;;4941706;29;20220;-74
2023/01/11 05:48:25;;;;;;;1.10;0.75;;;8.60;99.90;;;;;;4940100;29;20666;-75
2023/01/11 05:50:54;;;;;;;0.73;0.73;;;8.60;99.90;;;;;;4944140;29;20709;-75
2023/01/11 05:53:22;;;;;;;0.70;0.60;;;8.60;99.90;;;;;;4943661;29;20327;-75
2023/01/11 05:55:53;;;;;;;1.20;0.50;;;8.60;99.90;;;;;;4950437;29;20678;-75
2023/01/11 05:58:20;;;;;;;0.77;0.70;;;8.60;99.90;;;;;;4947808;29;20278;-79
2023/01/11 06:00:49;;;;;;;0.70;0.60;;;8.60;99.90;;;;;;4942059;28;20209;-79
2023/01/11 06:03:17;;;;;;;1.27;0.70;;;8.60;99.90;;;;;;4953583;28;20554;-73
2023/01/11 06:05:44;;;;;;;0.93;0.80;;;8.60;99.90;;;;;;4959113;28;20285;-74
2023/01/11 06:08:11;;;;;;;1.63;0.70;;;8.60;99.90;;;;;;4958464;28;20675;-73
2023/01/11 06:10:38;;;;;;;1.60;0.85;;;8.50;99.90;;;;;;4959013;28;20213;-73
2023/01/11 06:15:52;;;;;;;1.05;0.70;;;8.50;99.90;;;;;;4952143;28;20248;-74
2023/01/11 06:18:20;;;;;;;1.17;0.80;;;8.50;99.90;;;;;;4959610;28;20201;-73
2023/01/11 06:20:49;;;;;;;1.40;0.60;;;8.40;99.90;;;;;;4957372;28;20652;-75
2023/01/11 06:23:16;;;;;;;0.90;0.70;;;8.40;99.90;;;;;;4943383;28;20210;-73
2023/01/11 06:25:44;;;;;;;2.15;0.60;;;8.40;99.90;;;;;;4954899;28;20229;-73
2023/01/11 06:28:11;;;;;;;0.60;0.60;;;8.50;99.90;;;;;;4954255;28;20202;-74
2023/01/11 06:30:38;;;;;;;0.70;0.65;;;8.50;99.90;;;;;;4954542;28;20283;-73
2023/01/11 06:33:07;;;;;;;1.00;0.82;;;8.50;99.90;;;;;;4953883;28;20227;-73
2023/01/11 06:35:37;;;;;;;1.27;0.90;;;8.50;99.90;;;;;;4965252;28;20222;-73
2023/01/11 06:38:04;;;;;;;0.80;0.70;;;8.50;99.90;;;;;;4946069;28;20196;-73
2023/01/11 06:40:31;;;;;;;1.00;0.80;;;8.50;99.90;;;;;;4954584;28;20259;-73
2023/01/11 06:42:58;;;;;;;0.70;0.60;;;8.50;99.90;;;;;;4943409;28;20227;-73
2023/01/11 06:45:25;;;;;;;0.77;0.70;;;8.40;99.90;;;;;;4956643;28;20223;-73
2023/01/11 06:47:53;;;;;;;1.70;0.63;;;8.40;99.90;;;;;;4955945;28;20203;-74
2023/01/11 06:50:21;;;;;;;0.88;0.80;;;8.50;99.90;;;;;;4955394;28;20227;-73
2023/01/11 06:52:53;;;;;;;1.20;0.70;;;8.40;99.90;;;;;;4951730;28;20192;-74
2023/01/11 06:55:20;;;;;;;1.35;0.70;;;8.50;99.90;;;;;;4961371;28;20639;-73
2023/01/11 06:57:47;;;;;;;1.30;1.20;;;8.50;99.90;;;;;;4960291;28;20289;-73
2023/01/11 07:00:15;;;;;;;1.25;0.60;;;8.50;99.90;;;;;;4957926;28;20219;-74
2023/01/11 07:02:42;;;;;;;1.27;0.80;;;8.60;99.90;;;;;;4956581;28;20203;-74
2023/01/11 07:05:10;;;;;;;1.30;0.70;;;8.60;99.90;;;;;;4951437;28;20229;-74
2023/01/11 07:07:39;;;;;;;1.13;0.80;;;8.60;99.90;;;;;;4952811;28;20295;-75
2023/01/11 07:10:08;;;;;;;0.70;0.70;;;8.70;99.90;;;;;;4951906;28;20219;-75
2023/01/11 07:12:35;;;;;;;1.25;0.90;;;8.70;99.90;;;;;;4957369;28;20208;-75
2023/01/11 07:15:02;;;;;;;1.95;0.90;;;8.70;99.90;;;;;;4951498;28;20216;-75
2023/01/11 07:17:29;;;;;;;1.33;0.95;;;8.70;99.90;;;;;;4948576;28;20205;-74
2023/01/11 07:19:56;;;;;;;1.10;0.80;;;8.70;99.90;;;;;;4962062;28;20239;-74
2023/01/11 07:22:23;;;;;;;1.27;1.17;;;8.70;99.90;;;;;;4958842;28;20201;-74
2023/01/11 07:24:52;;;;;;;1.20;0.90;;;8.60;99.90;;;;;;4948973;28;20219;-74
2023/01/11 07:27:19;;;;;;;2.40;0.80;;;8.60;99.90;;;;;;4955631;28;20571;-74
2023/01/11 07:29:46;;;;;;;0.90;0.90;;;8.60;99.90;;;;;;4961762;28;20200;-74
2023/01/11 07:32:14;;;;;;;1.08;0.98;;;8.60;99.90;;;;;;4956538;28;20662;-73
2023/01/11 07:34:40;;;;;;;1.27;0.80;;;8.60;99.90;;;;;;4953336;28;20742;-74
2023/01/11 07:37:08;;;;;;;1.10;0.80;;;8.70;99.90;;;;;;4952737;28;21153;-74
2023/01/11 07:39:36;;;;;;;1.00;0.90;;;8.80;99.90;;;;;;4946894;28;20203;-74
2023/01/11 07:44:49;;;;;;;1.13;1.02;;;8.90;99.90;;;;;;4960577;28;20227;-74
2023/01/11 07:47:16;;;;;;;0.80;0.70;;;8.90;99.90;;;;;;4942037;28;22015;-75
2023/01/11 07:49:43;;;;;;;0.90;0.70;;;8.90;99.90;;;;;;4940527;29;20196;-74
2023/01/11 07:52:10;;;;;;;1.40;0.82;;;9.00;99.90;;;;;;4948826;29;20274;-75
2023/01/11 07:54:37;;;;;;;1.98;0.80;;;9.00;99.90;;;;;;4934204;28;20216;-75
2023/01/11 07:57:05;;;;;;;1.55;0.98;;;9.00;99.90;;;;;;4945072;29;20270;-77
2023/01/11 07:59:32;;;;;;;0.90;0.80;;;9.10;99.90;;;;;;4951025;28;20231;-75
2023/01/11 08:01:59;;;;;;;1.95;1.00;;;9.10;99.90;;;;;;4949285;29;20215;-75
2023/01/11 08:04:26;;;;;;;1.63;0.80;;;9.20;99.90;;;;;;4947568;29;20220;-75
2023/01/11 08:06:53;;;;;;;1.85;0.80;;;9.30;99.90;;;;;;4945555;29;20616;-75
2023/01/11 08:09:20;;;;;;;1.80;0.93;;;9.30;99.90;;;;;;4945489;29;20205;-87
2023/01/11 08:14:39;;;;;;;0.88;0.70;;;9.40;99.90;;;;;;4952683;29;20275;-75
2023/01/11 08:17:07;;;;;;;1.40;0.80;;;9.50;99.90;;;;;;4955048;29;20279;-75
2023/01/11 08:19:34;;;;;;;1.20;0.80;;;9.50;99.90;;;;;;4954772;29;20208;-75
2023/01/11 08:22:01;;;;;;;1.00;0.90;;;9.60;99.90;;;;;;4955678;29;20257;-74
2023/01/11 08:24:28;;;;;;;1.30;1.08;;;9.70;99.90;;;;;;4954046;28;20235;-75
2023/01/11 08:26:55;;;;;;;1.30;1.00;;;9.70;99.90;;;;;;4950589;29;20231;-75
2023/01/11 08:29:22;;;;;;;1.00;0.85;;;9.70;99.90;;;;;;4953675;29;20204;-75
2023/01/11 08:31:51;;;;;;;1.30;0.80;;;9.80;99.90;;;;;;4955577;29;20208;-74
2023/01/11 08:34:18;;;;;;;1.50;0.95;;;9.80;99.90;;;;;;4954505;29;20303;-74
2023/01/11 08:36:45;;;;;;;2.25;1.10;;;9.80;99.90;;;;;;4954832;29;20726;-74
2023/01/11 08:39:12;;;;;;;1.55;1.02;;;9.80;99.90;;;;;;4953628;29;20207;-74
2023/01/11 08:41:39;;;;;;;1.10;0.90;;;9.80;99.90;;;;;;4955704;29;20423;-74
2023/01/11 08:44:08;;;;;;;1.40;0.88;;;9.80;99.90;;;;;;4954266;29;20239;-74
2023/01/11 08:46:36;;;;;;;1.30;1.00;;;9.70;99.90;;;;;;4953607;29;20208;-74
2023/01/11 08:49:10;;;;;;;1.98;0.70;;;9.70;99.90;;;;;;4954754;29;20268;-74
2023/01/11 08:51:38;;;;;;;1.13;1.02;;;9.70;99.90;;;;;;4954500;29;20215;-74
2023/01/11 08:54:08;;;;;;;1.20;0.90;;;9.70;99.90;;;;;;4938596;29;20312;-74
2023/01/11 08:56:36;;;;;;;1.00;0.90;;;9.80;99.90;;;;;;4940500;29;20219;-73
2023/01/11 08:59:03;;;;;;;1.10;1.00;;;9.70;99.90;;;;;;4954267;29;20204;-74
2023/01/11 09:01:31;;;;;;;1.20;0.90;;;9.70;99.90;;;;;;4953155;29;20291;-73
2023/01/11 09:03:58;;;;;;;2.20;1.10;;;9.70;99.90;;;;;;4941792;29;20307;-74
2023/01/11 09:06:26;;;;;;;1.73;1.00;;;9.70;99.90;;;;;;4939590;29;20322;-74
2023/01/11 09:08:53;;;;;;;1.05;0.90;;;9.80;99.90;;;;;;4953323;29;20235;-74
2023/01/11 09:14:05;;;;;;;2.25;1.13;;;9.80;99.90;;;;;;4953880;29;20577;-74
2023/01/11 09:16:32;;;;;;;1.48;1.15;;;9.90;99.90;;;;;;4954617;28;20526;-74
2023/01/11 09:18:59;;;;;;;1.55;0.90;;;9.90;99.90;;;;;;4951957;29;21311;-74
2023/01/11 09:21:29;;;;;;;2.53;1.00;;;10.00;99.90;;;;;;4949978;29;20196;-74
2023/01/11 09:23:56;;;;;;;1.92;1.00;;;10.00;99.90;;;;;;4942785;29;20697;-75
2023/01/11 09:26:23;;;;;;;1.05;0.90;;;10.10;99.90;;;;;;4953704;29;20228;-74
2023/01/11 09:28:50;;;;;;;1.75;1.00;;;10.10;99.90;;;;;;4954527;29;20212;-74
2023/01/11 09:31:17;;;;;;;1.23;0.90;;;10.20;99.90;;;;;;4954613;29;20196;-74
2023/01/11 09:33:44;;;;;;;0.80;0.80;;;10.30;99.90;;;;;;4952674;29;20275;-74
2023/01/11 09:36:13;;;;;;;1.00;0.90;;;10.40;99.90;;;;;;4953916;29;20319;-74
2023/01/11 09:38:42;;;;;;;1.85;1.00;;;10.40;99.90;;;;;;4937605;29;20280;-74
2023/01/11 09:41:23;;;;;;;1.48;0.82;;;10.50;99.90;;;;;;4940579;29;20204;-74
2023/01/11 09:44:05;;;;;;;0.90;0.80;;;10.50;99.90;;;;;;4946881;29;20219;-74
2023/01/11 09:46:34;;;;;;;1.48;0.80;;;10.60;99.90;;;;;;4952598;28;20208;-74
2023/01/11 09:49:03;;;;;;;1.33;0.90;;;10.60;99.90;;;;;;4952059;29;20675;-74
2023/01/11 09:51:36;;;;;;;0.70;0.60;;;10.60;99.90;;;;;;4953998;29;20260;-75
2023/01/11 09:54:09;;;;;;;0.70;0.70;;;10.60;99.90;;;;;;4952749;29;20722;-74
2023/01/11 09:56:46;;;;;;;1.77;0.80;;;10.70;99.90;;;;;;4953667;29;20248;-74
2023/01/11 09:59:23;;;;;;;2.47;1.08;;;10.70;99.90;;;;;;4952480;29;20203;-74
2023/01/11 10:01:54;;;;;;;0.77;0.70;;;10.50;99.90;;;;;;4953792;29;20616;-74
2023/01/11 10:04:44;;;;;;;1.13;0.70;;;10.80;99.90;;;;;;4952256;29;20280;-74
2023/01/11 10:07:30;;;;;;;1.55;0.80;;;10.80;99.90;;;;;;4949059;29;20642;-74
2023/01/11 10:10:12;;;;;;;1.75;1.20;;;10.80;99.90;;;;;;4946600;29;20295;-74
2023/01/11 10:12:47;;;;;;;2.83;1.05;;;10.80;99.90;;;;;;4953683;29;20552;-73
2023/01/11 10:15:20;;;;;;;0.70;0.60;;;10.80;99.90;;;;;;4941548;29;20894;-75
2023/01/11 10:18:01;;;;;;;1.70;0.70;;;10.80;99.90;;;;;;4934448;29;20221;-73
2023/01/11 10:20:34;;;;;;;1.17;0.80;;;10.90;99.90;;;;;;4949474;29;20735;-74
2023/01/11 10:23:05;;;;;;;5.25;1.05;;;10.90;99.90;;;;;;4953118;29;20208;-74
2023/01/11 10:25:43;;;;;;;3.80;1.10;;;11.00;99.90;;;;;;4950831;29;20691;-74
2023/01/11 10:28:21;;;;;;;1.80;0.90;;;11.00;99.90;;;;;;4953224;29;20192;-75
2023/01/11 10:31:06;;;;;;;5.30;1.13;;;11.00;99.90;;;;;;4948892;29;20716;-74
2023/01/11 10:34:04;;;;;;;2.40;1.00;;;11.10;99.90;;;;;;4952973;28;20263;-75
2023/01/11 10:36:54;;;;;;;3.13;0.90;;;11.10;99.90;;;;;;4951186;28;20235;-75
2023/01/11 10:39:49;;;;;;;2.97;0.90;;;11.10;99.90;;;;;;4953275;29;20215;-73
2023/01/11 10:42:21;;;;;;;1.05;0.70;;;11.10;99.90;;;;;;4953606;29;20204;-75
2023/01/11 10:44:58;;;;;;;2.80;1.35;;;11.20;99.90;;;;;;4951066;29;20228;-75
2023/01/11 10:47:29;;;;;;;1.65;0.98;;;11.20;99.90;;;;;;4944587;29;20283;-75
2023/01/11 10:50:00;;;;;;;1.25;0.88;;;11.20;99.90;;;;;;4947342;29;20207;-73
2023/01/11 10:52:40;;;;;;;1.48;0.70;;;11.20;99.90;;;;;;4952302;29;20204;-75
2023/01/11 10:55:12;;;;;;;2.42;1.00;;;11.20;99.90;;;;;;4953112;29;20227;-75
2023/01/11 10:57:54;;;;;;;4.43;1.10;;;11.20;99.90;;;;;;4951823;29;20588;-75
2023/01/11 11:00:32;;;;;;;2.25;0.77;;;11.10;99.90;;;;;;4934715;29;20231;-76
2023/01/11 11:03:39;;;;;;;0.75;0.50;;;11.10;99.90;;;;;;4937221;29;20196;-75
2023/01/11 11:06:13;;;;;;;3.95;0.85;;;11.00;99.90;;;;;;4952774;28;20203;-72
2023/01/11 11:08:52;;;;;;;2.25;0.80;;;11.00;99.90;;;;;;4951472;29;20273;-72
2023/01/11 11:11:22;;;;;;;1.70;0.88;;;11.00;99.90;;;;;;4952643;29;20199;-74
2023/01/11 11:14:01;;;;;;;1.27;0.90;;;11.00;99.90;;;;;;4952808;29;20263;-71
2023/01/11 11:16:49;;;;;;;7.05;1.10;;;10.90;99.90;;;;;;4951413;29;20204;-71
2023/01/11 11:19:19;;;;;;;3.63;1.00;;;10.90;99.90;;;;;;4942704;29;20204;-72
2023/01/11 11:21:48;;;;;;;1.35;0.88;;;10.90;99.90;;;;;;4952045;29;20212;-73
2023/01/11 11:24:22;;;;;;;1.10;0.70;;;10.90;99.90;;;;;;4952847;29;20256;-73
2023/01/11 11:27:01;;;;;;;1.38;0.85;;;10.90;99.90;;;;;;4951299;29;20234;-72
2023/01/11 11:29:30;;;;;;;1.63;1.00;;;10.90;99.90;;;;;;4952015;29;20826;-73
2023/01/11 11:31:59;;;;;;;1.13;0.80;;;10.90;99.90;;;;;;4951572;29;20843;-73
2023/01/11 11:34:28;;;;;;;0.88;0.65;;;10.90;99.90;;;;;;4945842;28;20299;-75
2023/01/11 11:36:59;;;;;;;2.85;0.93;;;10.90;99.90;;;;;;4952414;29;20592;-73
2023/01/11 11:39:28;;;;;;;0.90;0.60;;;11.00;99.90;;;;;;4951211;28;20197;-73
2023/01/11 11:41:57;;;;;;;0.85;0.70;;;11.00;99.90;;;;;;4952530;29;20204;-73
2023/01/11 11:44:25;;;;;;;1.00;0.73;;;11.00;99.90;;;;;;4952797;28;20227;-75
2023/01/11 11:47:02;;;;;;;1.38;0.95;;;11.10;99.90;;;;;;4952214;28;20231;-75
2023/01/11 11:49:30;;;;;;;1.15;0.70;;;11.20;99.90;;;;;;4955622;29;20228;-74
2023/01/11 11:51:59;;;;;;;0.95;0.73;;;11.20;99.90;;;;;;4954293;29;20207;-74
2023/01/11 11:54:30;;;;;;;0.80;0.60;;;11.20;99.90;;;;;;4955971;28;20227;-74
2023/01/11 11:56:59;;;;;;;0.95;0.70;;;11.20;99.90;;;;;;4955323;29;20238;-72
2023/01/11 11:59:31;;;;;;;0.77;0.63;;;11.10;99.90;;;;;;4955105;29;20706;-72
2023/01/11 12:02:03;;;;;;;0.90;0.75;;;11.00;99.90;;;;;;4954178;29;20208;-73
2023/01/11 12:04:39;;;;;;;0.90;0.60;;;11.00;99.90;;;;;;4956196;29;20252;-74
2023/01/11 12:07:13;;;;;;;0.77;0.65;;;11.00;99.90;;;;;;4953062;29;20208;-74
2023/01/11 12:09:44;;;;;;;1.77;0.70;;;11.00;99.90;;;;;;4954915;29;20245;-74
2023/01/11 12:12:17;;;;;;;2.35;0.70;;;10.90;99.90;;;;;;4955423;29;20204;-73
2023/01/11 12:15:03;;;;;;;1.55;0.70;;;10.90;99.90;;;;;;4956082;28;20221;-73
2023/01/11 12:17:32;;;;;;;0.82;0.82;;;10.90;99.90;;;;;;4936396;29;20582;-73
2023/01/11 12:19:59;;;;;;;0.82;0.70;;;10.90;99.90;;;;;;4948062;29;20228;-73
2023/01/11 12:22:27;;;;;;;0.90;0.80;;;10.90;99.90;;;;;;4954943;29;20287;-73
2023/01/11 12:25:20;;;;;;;1.42;0.70;;;10.80;99.90;;;;;;4955609;28;20710;-72
2023/01/11 12:27:58;;;;;;;0.80;0.73;;;10.80;99.90;;;;;;4936251;29;20212;-74
2023/01/11 12:30:34;;;;;;;1.33;0.80;;;10.80;99.90;;;;;;4951277;29;20232;-74
2023/01/11 12:33:30;;;;;;;1.38;1.15;;;10.70;99.90;;;;;;4955674;28;20210;-69
2023/01/11 12:36:04;;;;;;;1.50;0.80;;;10.70;99.90;;;;;;4949795;29;20203;-71
2023/01/11 12:38:39;;;;;;;1.08;0.80;;;10.70;99.90;;;;;;4954953;29;20282;-71
2023/01/11 12:41:48;;;;;;;0.98;0.88;;;10.60;99.90;;;;;;4954858;29;20231;-70
2023/01/11 12:44:26;;;;;;;0.90;0.70;;;10.70;99.90;;;;;;4953878;29;20562;-71
2023/01/11 12:47:09;;;;;;;1.15;0.80;;;10.70;99.90;;;;;;4954370;28;20653;-70
2023/01/11 12:49:46;;;;;;;2.50;0.95;;;10.70;99.90;;;;;;4948335;29;20286;-71
2023/01/11 12:52:29;;;;;;;1.92;1.10;;;10.60;99.90;;;;;;4936332;29;20204;-70
2023/01/11 12:55:14;;;;;;;0.88;0.80;;;10.70;99.90;;;;;;4953539;29;20220;-71
2023/01/11 12:57:58;;;;;;;1.40;1.00;;;10.60;99.90;;;;;;4936926;29;20227;-71
2023/01/11 13:00:39;;;;;;;1.08;0.90;;;10.60;99.90;;;;;;4954029;28;20281;-71
2023/01/11 13:03:41;;;;;;;1.00;0.90;;;10.60;99.90;;;;;;4952965;29;20231;-69
2023/01/11 13:06:15;;;;;;;1.70;0.82;;;10.60;99.90;;;;;;4954397;29;20291;-69
2023/01/11 13:08:55;;;;;;;1.23;1.10;;;10.60;99.90;;;;;;4953381;29;20212;-70
2023/01/11 13:11:37;;;;;;;1.00;0.90;;;10.50;99.90;;;;;;4935823;29;20217;-69
2023/01/11 13:14:23;;;;;;;1.30;1.00;;;10.50;99.90;;;;;;4949668;29;20221;-69
2023/01/11 13:16:59;;;;;;;1.20;0.88;;;10.50;99.90;;;;;;4935235;29;20223;-65
2023/01/11 13:19:36;;;;;;;1.30;0.90;;;10.50;99.90;;;;;;4938749;29;20208;-67
2023/01/11 13:22:10;;;;;;;1.40;1.20;;;10.50;99.90;;;;;;4954816;29;20216;-69
2023/01/11 13:24:39;;;;;;;1.27;1.17;;;10.50;99.90;;;;;;4953820;29;20634;-68
2023/01/11 13:27:12;;;;;;;1.40;1.30;;;10.50;99.90;;;;;;4949309;29;20194;-69
2023/01/11 13:29:43;;;;;;;1.55;1.10;;;10.60;99.90;;;;;;4939108;29;20220;-67
2023/01/11 13:32:14;;;;;;;1.15;1.05;;;10.60;99.90;;;;;;4954485;29;20336;-67
2023/01/11 13:34:45;;;;;;;1.60;0.90;;;10.60;99.90;;;;;;4952360;29;20307;-67
2023/01/11 13:37:20;;;;;;;1.20;0.90;;;10.60;99.90;;;;;;4951264;29;21076;-67
2023/01/11 13:39:53;;;;;;;2.55;1.00;;;10.60;99.90;;;;;;4935293;29;20204;-67
2023/01/11 13:42:22;;;;;;;1.10;1.00;;;10.60;99.90;;;;;;4935234;29;20193;-67